Time;durP1;ratioP1;P1;durP2;ratioP2;P2;SDS_P1;SDS_P2;PMS_P1;PMS_P2;Temp;Humidity;BMP_temperature;BMP_pressure;BME280_temperature;BME280_humidity;BME280_pressure;Samples;Min_cycle;Max_cycle;Signal;HPM_P1;HPM_P2
2021/01/30 00:02:07;;;;;;;71.60;35.73;;;;;;;-1.45;81.42;99454.05;1741333;82;21144;-90
2021/01/30 00:04:34;;;;;;;74.15;35.20;;;;;;;-1.44;81.41;99450.27;1739909;82;21576;-90
2021/01/30 00:07:06;;;;;;;77.50;37.93;;;;;;;-1.40;81.45;99455.19;1739826;80;22896;-89
2021/01/30 00:09:33;;;;;;;69.47;35.10;;;;;;;-1.41;81.44;99449.14;1740339;82;21169;-90
2021/01/30 00:12:01;;;;;;;70.45;35.15;;;;;;;-1.39;81.49;99455.27;1740355;82;21658;-90
2021/01/30 00:14:31;;;;;;;70.45;34.20;;;;;;;-1.34;81.58;99449.45;1740096;82;21157;-90
2021/01/30 00:16:59;;;;;;;72.65;35.45;;;;;;;-1.32;81.53;99439.67;1740230;82;21165;-90
2021/01/30 00:19:28;;;;;;;66.55;33.70;;;;;;;-1.27;81.58;99435.64;1740158;81;22032;-89
2021/01/30 00:21:58;;;;;;;68.75;31.95;;;;;;;-1.22;81.57;99434.18;1740068;82;21160;-89
2021/01/30 00:24:27;;;;;;;63.75;31.70;;;;;;;-1.19;81.47;99438.60;1740232;82;21133;-90
2021/01/30 00:26:56;;;;;;;68.70;32.38;;;;;;;-1.19;81.41;99438.60;1740129;81;21230;-88
2021/01/30 00:29:24;;;;;;;59.42;30.25;;;;;;;-1.21;81.33;99436.35;1739726;82;21141;-88
2021/01/30 00:31:51;;;;;;;54.95;29.23;;;;;;;-1.21;81.38;99438.93;1740179;82;21899;-89
2021/01/30 00:34:23;;;;;;;62.53;31.70;;;;;;;-1.23;81.31;99433.69;1739889;81;21280;-88
2021/01/30 00:36:54;;;;;;;59.25;28.02;;;;;;;-1.26;81.31;99430.97;1740055;81;21192;-89
2021/01/30 00:39:22;;;;;;;56.63;28.45;;;;;;;-1.28;81.36;99429.09;1740102;81;21152;-89
2021/01/30 00:41:52;;;;;;;59.75;28.60;;;;;;;-1.27;81.39;99438.22;1740053;82;21121;-89
2021/01/30 00:44:19;;;;;;;54.67;27.93;;;;;;;-1.25;81.42;99442.17;1740055;82;21841;-88
2021/01/30 00:46:49;;;;;;;56.18;26.37;;;;;;;-1.25;81.47;99441.77;1739705;81;21176;-89
2021/01/30 00:49:17;;;;;;;52.20;26.95;;;;;;;-1.25;81.48;99443.05;1739794;81;21208;-89
2021/01/30 00:51:44;;;;;;;52.67;25.02;;;;;;;-1.23;81.49;99446.59;1740014;81;21271;-90
2021/01/30 00:54:11;;;;;;;48.13;25.35;;;;;;;-1.21;81.50;99447.55;1740044;81;21145;-89
2021/01/30 00:56:38;;;;;;;61.25;26.80;;;;;;;-1.20;81.51;99440.72;1747428;81;22099;-89
2021/01/30 00:59:09;;;;;;;54.00;25.75;;;;;;;-1.20;81.47;99438.14;1749206;81;21191;-89
2021/01/30 01:01:38;;;;;;;56.30;27.17;;;;;;;-1.18;81.51;99436.52;1749052;82;21152;-89
2021/01/30 01:04:05;;;;;;;54.88;27.27;;;;;;;-1.16;81.53;99438.77;1749197;81;21239;-89
2021/01/30 01:06:33;;;;;;;48.90;25.50;;;;;;;-1.14;81.50;99433.69;1749028;82;21176;-88
2021/01/30 01:09:06;;;;;;;51.42;25.77;;;;;;;-1.11;81.52;99441.56;1749147;82;21865;-89
2021/01/30 01:11:39;;;;;;;49.42;25.77;;;;;;;-1.09;81.50;99436.98;1728989;82;21563;-89
2021/01/30 01:14:06;;;;;;;51.77;26.30;;;;;;;-1.07;81.49;99428.91;1749118;81;21653;-87
2021/01/30 01:16:37;;;;;;;53.45;25.62;;;;;;;-1.07;81.42;99432.78;1749217;81;21247;-89
2021/01/30 01:19:07;;;;;;;56.75;27.25;;;;;;;-1.09;81.39;99427.95;1750510;81;21697;-88
2021/01/30 01:21:34;;;;;;;48.25;25.17;;;;;;;-1.08;81.44;99426.23;1749973;81;21898;-89
2021/01/30 01:24:07;;;;;;;52.75;25.72;;;;;;;-1.09;81.41;99428.33;1749257;81;21538;-89
2021/01/30 01:26:34;;;;;;;49.45;24.98;;;;;;;-1.13;81.36;99425.98;1749599;82;21144;-88
2021/01/30 01:29:01;;;;;;;53.42;24.57;;;;;;;-1.12;81.45;99428.19;1748885;82;21199;-88
2021/01/30 01:31:28;;;;;;;48.78;23.77;;;;;;;-1.12;81.50;99430.77;1749015;81;21164;-88
2021/01/30 01:33:56;;;;;;;44.40;23.45;;;;;;;-1.11;81.54;99431.23;1748632;82;21902;-86
2021/01/30 01:36:26;;;;;;;44.00;23.18;;;;;;;-1.10;81.55;99431.73;1748642;82;21236;-87
2021/01/30 01:38:53;;;;;;;43.73;21.35;;;;;;;-1.12;81.52;99430.36;1748985;82;21152;-88
2021/01/30 01:41:20;;;;;;;45.90;22.82;;;;;;;-1.13;81.55;99426.41;1748895;81;21256;-88
2021/01/30 01:43:53;;;;;;;48.63;23.22;;;;;;;-1.12;81.59;99422.61;1717892;82;21471;-88
2021/01/30 01:46:31;;;;;;;52.60;23.67;;;;;;;-1.13;81.60;99414.78;1749364;81;22880;-89
2021/01/30 01:49:02;;;;;;;47.03;23.62;;;;;;;-1.14;81.55;99417.78;1749176;82;21176;-88
2021/01/30 01:51:40;;;;;;;46.15;23.15;;;;;;;-1.15;81.59;99412.53;1748367;82;21223;-90
2021/01/30 01:54:15;;;;;;;43.38;22.37;;;;;;;-1.16;81.68;99416.82;1748635;82;21116;-88
2021/01/30 01:56:42;;;;;;;51.30;23.10;;;;;;;-1.14;81.72;99410.03;1747621;81;21546;-86
2021/01/30 01:59:12;;;;;;;48.98;23.55;;;;;;;-1.14;81.72;99410.03;1748770;81;22180;-88
2021/01/30 02:01:39;;;;;;;50.55;23.05;;;;;;;-1.10;81.80;99411.08;1748848;81;21191;-88
2021/01/30 02:04:12;;;;;;;44.55;21.68;;;;;;;-1.09;81.74;99402.50;1748599;81;21587;-88
2021/01/30 02:06:46;;;;;;;50.10;23.10;;;;;;;-1.09;81.74;99398.25;1749398;81;21320;-88
2021/01/30 02:09:21;;;;;;;50.98;23.60;;;;;;;-1.06;81.77;99401.38;1749442;81;21208;-88
2021/01/30 02:12:12;;;;;;;41.58;22.50;;;;;;;-1.05;81.76;99397.96;1749436;82;21895;-87
2021/01/30 02:14:53;;;;;;;49.42;22.62;;;;;;;-1.04;81.70;99395.46;1728660;82;21911;-89
2021/01/30 02:17:39;;;;;;;43.17;20.70;;;;;;;-1.02;81.66;99394.25;1749205;81;21650;-89
2021/01/30 02:21:20;;;;;;;43.58;20.92;;;;;;;-0.99;81.65;99399.16;1749319;82;21250;-88
2021/01/30 02:24:12;;;;;;;39.03;20.55;;;;;;;-0.95;81.64;99400.62;1749370;82;21736;-89
2021/01/30 02:27:14;;;;;;;43.95;20.50;;;;;;;-0.92;81.62;99406.83;1711290;83;21979;-89
2021/01/30 02:30:19;;;;;;;43.05;19.82;;;;;;;-0.89;81.62;99404.78;1749178;82;21184;-88
2021/01/30 02:33:21;;;;;;;38.70;19.15;;;;;;;-0.84;81.54;99407.19;1747915;82;21203;-87
2021/01/30 02:36:33;;;;;;;40.20;21.23;;;;;;;-0.83;81.51;99410.23;1749369;81;21707;-89
2021/01/30 02:39:36;;;;;;;41.45;20.70;;;;;;;-0.82;81.40;99412.02;1749321;82;21077;-89
2021/01/30 02:42:11;;;;;;;41.95;20.60;;;;;;;-0.82;81.37;99413.31;1749114;82;21916;-89
2021/01/30 02:45:01;;;;;;;40.50;20.50;;;;;;;-0.84;81.32;99414.53;1748677;81;21179;-89
2021/01/30 02:47:37;;;;;;;45.55;20.50;;;;;;;-0.84;81.27;99414.53;1749180;81;21156;-88
2021/01/30 02:50:15;;;;;;;44.58;19.85;;;;;;;-0.87;81.27;99416.07;1748744;82;21092;-90
2021/01/30 02:52:56;;;;;;;42.90;20.00;;;;;;;-0.84;81.26;99409.36;1891182;75;22444;-88
2021/01/30 02:55:23;;;;;;;41.50;20.52;;;;;;;-0.89;81.25;99412.53;1871890;76;21155;-90
2021/01/30 02:57:50;;;;;;;45.75;21.40;;;;;;;-0.90;81.18;99412.03;1871698;76;21866;-88
2021/01/30 03:00:21;;;;;;;43.13;20.12;;;;;;;-0.91;81.18;99415.03;1871548;76;21187;-86
2021/01/30 03:02:48;;;;;;;37.28;19.25;;;;;;;-0.93;81.16;99414.08;1871707;76;21136;-89
2021/01/30 03:05:15;;;;;;;42.13;19.85;;;;;;;-0.93;81.16;99419.66;1836836;76;21597;-88
2021/01/30 03:08:02;;;;;;;40.48;19.02;;;;;;;-0.92;81.15;99420.13;1871862;76;21150;-88
2021/01/30 03:10:49;;;;;;;35.38;18.50;;;;;;;-0.91;81.14;99410.28;1871852;76;21942;-89
2021/01/30 03:13:35;;;;;;;44.38;19.95;;;;;;;-0.93;81.09;99413.20;1871596;76;21155;-88
2021/01/30 03:16:20;;;;;;;36.38;18.48;;;;;;;-0.91;81.14;99407.70;1871495;76;21166;-86
2021/01/30 03:19:02;;;;;;;35.60;17.02;;;;;;;-0.91;81.10;99405.99;1871533;76;21854;-90
2021/01/30 03:21:29;;;;;;;34.80;18.27;;;;;;;-0.92;81.07;99408.50;1867096;76;21112;-89
2021/01/30 03:23:56;;;;;;;37.65;17.35;;;;;;;-0.90;81.13;99406.87;1871866;76;21885;-89
2021/01/30 03:26:41;;;;;;;39.42;18.50;;;;;;;-0.88;81.08;99408.73;1871809;76;21590;-91
2021/01/30 03:29:31;;;;;;;36.07;16.70;;;;;;;-0.83;81.06;99405.07;1889745;76;23248;-88
2021/01/30 03:31:58;;;;;;;32.00;16.80;;;;;;;-0.89;80.99;99403.48;1857936;77;21170;-87
2021/01/30 03:34:25;;;;;;;32.03;16.75;;;;;;;-0.88;81.05;99400.08;1857847;77;21871;-88
2021/01/30 03:36:53;;;;;;;33.80;17.15;;;;;;;-0.87;81.00;99403.16;1857880;77;21221;-87
2021/01/30 03:39:20;;;;;;;29.50;15.35;;;;;;;-0.86;81.00;99404.53;1857838;77;21166;-87
2021/01/30 03:41:49;;;;;;;27.85;15.45;;;;;;;-0.85;80.96;99398.53;1857928;77;21170;-87
2021/01/30 03:44:16;;;;;;;29.07;14.85;;;;;;;-0.86;80.91;99395.91;1858031;77;21166;-87
2021/01/30 03:46:46;;;;;;;29.37;16.12;;;;;;;-0.84;80.90;99398.16;1857809;77;21937;-87
2021/01/30 03:49:13;;;;;;;28.40;15.58;;;;;;;-0.83;80.87;99400.78;1857742;77;21204;-88
2021/01/30 03:51:44;;;;;;;22.42;13.55;;;;;;;-0.82;80.85;99395.23;1857757;77;21118;-87
2021/01/30 03:54:12;;;;;;;21.90;12.13;;;;;;;-0.78;80.85;99391.98;1857721;77;21159;-88
2021/01/30 03:56:44;;;;;;;23.60;12.35;;;;;;;-0.73;80.85;99390.52;1827631;77;21118;-86
2021/01/30 03:59:13;;;;;;;24.12;12.33;;;;;;;-0.69;80.85;99390.25;1857849;77;21929;-85
2021/01/30 04:01:40;;;;;;;26.02;13.68;;;;;;;-0.64;80.82;99392.25;1857678;76;21553;-87
2021/01/30 04:04:07;;;;;;;22.40;12.47;;;;;;;-0.61;80.77;99394.95;1857860;77;21118;-87
2021/01/30 04:06:34;;;;;;;27.30;13.53;;;;;;;-0.55;80.72;99393.48;1857633;77;21099;-88
2021/01/30 04:09:02;;;;;;;27.40;13.90;;;;;;;-0.48;80.79;99404.18;1857871;77;21099;-86
2021/01/30 04:11:34;;;;;;;29.95;14.10;;;;;;;-0.44;80.67;99400.04;1857909;77;22637;-87
2021/01/30 04:14:08;;;;;;;24.25;13.38;;;;;;;-0.41;80.68;99398.48;1857763;77;21103;-89
2021/01/30 04:16:40;;;;;;;27.77;13.55;;;;;;;-0.37;80.64;99398.23;1857930;77;21083;-89
2021/01/30 04:19:07;;;;;;;28.83;14.18;;;;;;;-0.32;80.58;99398.42;1857897;77;21151;-89
2021/01/30 04:21:47;;;;;;;23.45;12.75;;;;;;;-0.29;80.58;99403.33;1857831;77;21553;-89
2021/01/30 04:24:23;;;;;;;24.63;12.10;;;;;;;-0.24;80.56;99403.56;1857918;77;22060;-88
2021/01/30 04:26:49;;;;;;;23.32;11.93;;;;;;;-0.21;80.49;99401.09;1857749;77;21220;-84
2021/01/30 04:29:18;;;;;;;18.37;11.18;;;;;;;-0.18;80.42;99399.08;1858020;77;21110;-89
2021/01/30 04:31:45;;;;;;;20.92;11.95;;;;;;;-0.17;80.42;99396.95;1857823;77;21135;-88
2021/01/30 04:34:13;;;;;;;19.10;10.95;;;;;;;-0.16;80.42;99397.03;1857732;76;21072;-87
2021/01/30 04:36:40;;;;;;;18.45;11.50;;;;;;;-0.14;80.39;99390.64;1857754;77;21885;-83
2021/01/30 04:39:07;;;;;;;18.67;11.28;;;;;;;-0.09;80.45;99390.45;1857416;77;21099;-88
2021/01/30 04:42:08;;;;;;;21.68;11.55;;;;;;;-0.06;80.44;99382.39;1857175;77;21122;-88
2021/01/30 04:45:00;;;;;;;17.30;10.35;;;;;;;-0.01;80.42;99387.79;1857122;77;21091;-88
2021/01/30 04:48:12;;;;;;;16.97;8.55;;;;;;;0.01;80.34;99381.40;1857052;77;21126;-88
2021/01/30 04:50:48;;;;;;;20.02;10.08;;;;;;;0.03;80.29;99382.35;1856862;77;22072;-88
2021/01/30 04:53:48;;;;;;;14.28;9.08;;;;;;;0.06;80.33;99395.44;1857367;77;21186;-89
2021/01/30 04:56:21;;;;;;;20.37;9.80;;;;;;;0.08;80.24;99388.63;1857314;77;21263;-88
2021/01/30 04:59:19;;;;;;;20.62;10.25;;;;;;;0.12;80.28;99391.41;1857295;77;21218;-88
2021/01/30 05:01:58;;;;;;;18.42;10.35;;;;;;;0.13;80.20;99388.39;1819747;78;21636;-90
2021/01/30 05:04:39;;;;;;;15.90;9.40;;;;;;;0.14;80.18;99388.89;1819876;78;21820;-88
2021/01/30 05:07:29;;;;;;;15.32;7.87;;;;;;;0.16;80.19;99397.19;1819768;78;21119;-90
2021/01/30 05:10:03;;;;;;;15.25;8.18;;;;;;;0.19;80.16;99386.11;1819404;78;21187;-88
2021/01/30 05:13:09;;;;;;;14.45;7.75;;;;;;;0.27;80.14;99391.62;1848951;76;23044;-88
2021/01/30 05:15:50;;;;;;;14.05;7.40;;;;;;;0.23;80.10;99391.89;1819776;78;21112;-88
2021/01/30 05:18:28;;;;;;;13.38;7.15;;;;;;;0.26;80.09;99394.59;1818372;78;21891;-87
2021/01/30 05:21:15;;;;;;;16.87;8.58;;;;;;;0.27;80.05;99396.38;1819652;78;21803;-86
2021/01/30 05:23:51;;;;;;;16.00;8.18;;;;;;;0.30;80.06;99399.49;1819721;78;21145;-87
2021/01/30 05:26:46;;;;;;;14.40;8.60;;;;;;;0.32;80.01;99392.67;1819701;78;21127;-84
2021/01/30 05:29:32;;;;;;;16.30;9.93;;;;;;;0.32;79.98;99392.30;1819592;78;21131;-83
2021/01/30 05:32:13;;;;;;;29.32;16.80;;;;;;;0.32;79.91;99392.67;1819701;78;22821;-85
2021/01/30 05:34:51;;;;;;;21.85;13.18;;;;;;;0.31;79.94;99389.63;1819547;78;21154;-85
2021/01/30 05:37:26;;;;;;;24.12;13.62;;;;;;;0.32;80.01;99387.50;1819689;78;21124;-86
2021/01/30 05:40:34;;;;;;;23.35;12.55;;;;;;;0.35;80.06;99379.88;1818888;78;21198;-90
2021/01/30 05:43:36;;;;;;;59.95;30.80;;;;;;;0.34;79.97;99389.36;1820141;78;21147;-89
2021/01/30 05:46:04;;;;;;;84.28;37.08;;;;;;;0.35;79.99;99386.36;1820150;78;21885;-89
2021/01/30 05:48:37;;;;;;;91.17;39.63;;;;;;;0.36;79.96;99393.31;1788684;78;21155;-90
2021/01/30 05:51:26;;;;;;;;;;;;;;;0.37;79.97;99392.48;1822612;78;21103;-88
2021/01/30 05:53:53;;;;;;;37.50;18.57;;;;;;;0.37;79.89;99394.65;1819573;78;20236;-88
2021/01/30 05:56:20;;;;;;;22.98;12.78;;;;;;;0.32;79.78;99394.88;1819973;77;21135;-89
2021/01/30 05:58:47;;;;;;;19.30;11.80;;;;;;;0.30;79.83;99400.79;1820052;78;23036;-90
2021/01/30 06:01:30;;;;;;;21.70;11.22;;;;;;;0.27;79.81;99404.14;1819836;78;21146;-88
2021/01/30 06:04:06;;;;;;;19.90;11.88;;;;;;;0.26;79.87;99402.77;1820007;78;21126;-87
2021/01/30 06:06:53;;;;;;;16.57;10.00;;;;;;;0.24;79.88;99404.41;1819964;78;21162;-88
2021/01/30 06:09:40;;;;;;;18.50;11.03;;;;;;;0.25;79.87;99407.48;1820092;78;21147;-94
2021/01/30 06:12:22;;;;;;;16.40;10.43;;;;;;;0.24;79.88;99405.70;1819863;78;22847;-89
2021/01/30 06:14:49;;;;;;;22.55;12.70;;;;;;;0.24;79.89;99403.11;1815485;78;21130;-88
2021/01/30 06:17:28;;;;;;;17.80;11.73;;;;;;;0.26;79.92;99410.53;1819699;78;21186;-88
2021/01/30 06:20:21;;;;;;;16.25;10.43;;;;;;;0.27;79.87;99412.31;1819843;78;21580;-90
2021/01/30 06:23:11;;;;;;;18.20;11.05;;;;;;;0.26;79.89;99408.83;1819691;78;21538;-89
2021/01/30 06:25:42;;;;;;;19.52;11.60;;;;;;;0.27;79.80;99418.79;1819410;75;21884;-88
2021/01/30 06:28:26;;;;;;;19.10;11.75;;;;;;;0.28;79.72;99417.95;1818258;78;22213;-87
2021/01/30 06:31:13;;;;;;;18.20;11.03;;;;;;;0.27;79.65;99416.20;1819111;78;21217;-87
2021/01/30 06:33:49;;;;;;;17.07;10.08;;;;;;;0.23;79.53;99423.36;1818243;78;21159;-88
2021/01/30 06:36:23;;;;;;;16.57;10.38;;;;;;;0.22;79.53;99421.57;1818549;78;21127;-91
2021/01/30 06:39:11;;;;;;;16.42;10.08;;;;;;;0.22;79.48;99424.16;1819246;78;21692;-85
2021/01/30 06:41:39;;;;;;;18.67;10.75;;;;;;;0.23;79.46;99427.23;1787325;78;21139;-86
2021/01/30 06:44:30;;;;;;;18.65;11.05;;;;;;;0.23;79.49;99422.94;1818955;78;21117;-84
2021/01/30 06:47:00;;;;;;;19.95;11.15;;;;;;;0.24;79.45;99422.11;1818884;78;21111;-85
2021/01/30 06:49:35;;;;;;;24.65;13.83;;;;;;;0.24;79.36;99419.52;1818953;78;21131;-83
2021/01/30 06:52:13;;;;;;;24.50;14.43;;;;;;;0.22;79.32;99420.28;1819006;78;23039;-85
2021/01/30 06:54:40;;;;;;;20.80;13.03;;;;;;;0.20;79.40;99425.38;1818736;78;21253;-88
2021/01/30 06:57:26;;;;;;;17.60;10.08;;;;;;;0.22;79.44;99431.92;1819214;78;21100;-91
2021/01/30 07:00:06;;;;;;;17.10;9.85;;;;;;;0.25;79.47;99433.37;1819156;78;21139;-90
2021/01/30 07:02:46;;;;;;;17.07;10.05;;;;;;;0.25;79.40;99430.36;1819067;78;21614;-88
2021/01/30 07:05:41;;;;;;;16.90;10.18;;;;;;;0.26;79.46;99431.23;1818689;78;22921;-91
2021/01/30 07:08:31;;;;;;;15.05;9.38;;;;;;;0.26;79.46;99428.65;1818564;78;21562;-84
2021/01/30 07:11:18;;;;;;;20.45;10.75;;;;;;;0.28;79.41;99428.31;1738452;82;21163;-90
2021/01/30 07:14:35;;;;;;;21.07;11.28;;;;;;;0.29;79.45;99428.80;1696310;84;21170;-86
2021/01/30 07:17:13;;;;;;;18.55;10.10;;;;;;;0.34;79.49;99428.60;1713682;83;21585;-88
2021/01/30 07:20:03;;;;;;;16.48;10.58;;;;;;;0.36;79.46;99432.14;1736979;82;21963;-86
2021/01/30 07:22:35;;;;;;;20.02;10.93;;;;;;;0.36;79.37;99437.31;1760446;81;22401;-85
2021/01/30 07:25:18;;;;;;;24.15;12.58;;;;;;;0.42;79.43;99432.83;1811520;78;22679;-87
2021/01/30 07:28:21;;;;;;;24.43;12.98;;;;;;;0.37;79.37;99438.66;1797218;79;21167;-88
2021/01/30 07:31:11;;;;;;;27.55;14.28;;;;;;;0.37;79.42;99434.77;1797812;79;22100;-92
2021/01/30 07:33:51;;;;;;;24.92;14.00;;;;;;;0.38;79.42;99436.98;1797416;79;21132;-87
2021/01/30 07:36:35;;;;;;;26.10;13.40;;;;;;;0.41;79.51;99442.27;1797380;79;21159;-87
2021/01/30 07:39:31;;;;;;;19.52;11.63;;;;;;;0.47;79.59;99445.53;1796994;78;21160;-91
2021/01/30 07:42:12;;;;;;;20.23;11.38;;;;;;;0.50;79.50;99437.50;1797694;79;21594;-88
2021/01/30 07:45:09;;;;;;;29.30;13.93;;;;;;;0.50;79.49;99441.80;1797453;79;21834;-88
2021/01/30 07:48:12;;;;;;;32.80;14.25;;;;;;;0.53;79.53;99444.12;1797533;79;21176;-90
2021/01/30 07:50:43;;;;;;;44.75;15.23;;;;;;;0.57;79.51;99439.95;1797251;79;21573;-84
2021/01/30 07:53:19;;;;;;;27.17;13.38;;;;;;;0.60;79.46;99441.78;1797237;79;21152;-85
2021/01/30 07:56:21;;;;;;;25.52;12.58;;;;;;;0.63;79.52;99439.34;1797298;79;21175;-86
2021/01/30 07:59:05;;;;;;;23.07;11.90;;;;;;;0.68;79.49;99436.55;1797249;79;22005;-85
2021/01/30 08:02:02;;;;;;;23.18;12.58;;;;;;;0.73;79.43;99445.37;1797275;79;21116;-87
2021/01/30 08:05:21;;;;;;;23.00;12.85;;;;;;;0.80;79.51;99443.95;1781151;79;21181;-83
2021/01/30 08:08:13;;;;;;;25.05;13.45;;;;;;;0.88;79.45;99439.58;1796976;79;21120;-84
2021/01/30 08:10:58;;;;;;;23.60;12.33;;;;;;;0.95;79.33;99441.59;1793563;79;21144;-83
2021/01/30 08:13:33;;;;;;;22.10;11.75;;;;;;;1.04;79.37;99450.59;1797301;79;21889;-84
2021/01/30 08:16:17;;;;;;;23.18;11.45;;;;;;;1.13;79.34;99453.56;1797211;79;21192;-86
2021/01/30 08:18:45;;;;;;;16.40;9.60;;;;;;;1.19;79.21;99445.16;1797116;79;21191;-84
2021/01/30 08:21:20;;;;;;;19.73;11.00;;;;;;;1.24;79.20;99452.30;1797088;79;21258;-86
2021/01/30 08:23:56;;;;;;;18.20;10.13;;;;;;;1.28;79.19;99455.91;1794472;79;21128;-84
2021/01/30 08:26:33;;;;;;;16.82;10.55;;;;;;;1.29;79.15;99452.48;1788641;79;22863;-83
2021/01/30 08:29:17;;;;;;;18.23;9.63;;;;;;;1.31;79.09;99450.83;1788580;80;21589;-84
2021/01/30 08:31:49;;;;;;;16.30;10.28;;;;;;;1.35;79.17;99453.63;1788781;80;21623;-84
2021/01/30 08:34:24;;;;;;;17.60;9.03;;;;;;;1.44;79.12;99460.00;1787473;80;21661;-82
2021/01/30 08:37:17;;;;;;;16.90;10.30;;;;;;;1.54;79.09;99460.86;1788119;80;21646;-84
2021/01/30 08:40:12;;;;;;;17.07;10.35;;;;;;;1.66;79.02;99461.75;1760504;80;21901;-84
2021/01/30 08:42:59;;;;;;;17.17;10.65;;;;;;;1.76;78.66;99462.57;1787733;78;21511;-84
2021/01/30 08:45:31;;;;;;;21.23;11.53;;;;;;;1.82;78.54;99467.12;1788025;80;21365;-84
2021/01/30 08:48:09;;;;;;;17.62;10.23;;;;;;;1.90;78.25;99460.53;1788157;80;21210;-84
2021/01/30 08:50:48;;;;;;;17.07;11.25;;;;;;;1.94;78.33;99461.13;1787948;80;21160;-83
2021/01/30 08:53:27;;;;;;;17.35;10.72;;;;;;;1.98;78.05;99469.48;1788008;80;23058;-83
2021/01/30 08:56:03;;;;;;;17.98;10.85;;;;;;;2.03;77.88;99464.50;1787079;80;21156;-84
2021/01/30 08:58:39;;;;;;;20.65;11.28;;;;;;;2.05;77.79;99465.44;1788211;80;21132;-83
2021/01/30 09:01:13;;;;;;;17.00;10.98;;;;;;;2.05;77.57;99463.72;1787982;78;21132;-84
2021/01/30 09:04:02;;;;;;;18.07;9.90;;;;;;;2.02;77.38;99460.99;1788008;80;21144;-84
2021/01/30 09:06:51;;;;;;;18.00;10.95;;;;;;;2.02;77.17;99460.12;1788200;80;21906;-82
2021/01/30 09:09:24;;;;;;;16.02;9.48;;;;;;;2.01;77.20;99466.12;1788227;80;21144;-83
2021/01/30 09:12:02;;;;;;;14.80;9.17;;;;;;;1.98;77.01;99462.13;1788516;80;21155;-84
2021/01/30 09:14:36;;;;;;;13.50;8.60;;;;;;;1.96;76.75;99467.67;1788077;80;21228;-84
2021/01/30 09:17:24;;;;;;;12.03;7.83;;;;;;;1.91;76.81;99462.29;1788107;80;21546;-84
2021/01/30 09:20:19;;;;;;;15.30;8.80;;;;;;;1.92;76.60;99466.67;1787973;79;21894;-83
2021/01/30 09:23:04;;;;;;;15.48;8.83;;;;;;;1.87;76.46;99469.06;1787982;80;21176;-83
2021/01/30 09:25:43;;;;;;;14.93;7.60;;;;;;;1.84;76.53;99471.95;1767868;79;21174;-83
2021/01/30 09:28:20;;;;;;;13.48;8.50;;;;;;;1.76;76.31;99471.66;1746896;81;21563;-83
2021/01/30 09:31:03;;;;;;;14.60;8.00;;;;;;;1.83;76.50;99479.28;1733861;82;21345;-83
2021/01/30 09:33:34;;;;;;;11.83;7.47;;;;;;;1.85;76.29;99475.91;1704712;84;21234;-84
2021/01/30 09:36:13;;;;;;;14.80;8.80;;;;;;;1.88;76.41;99475.16;1733692;82;21610;-83
2021/01/30 09:38:44;;;;;;;15.15;9.00;;;;;;;1.96;76.43;99482.83;1704363;84;21238;-84
2021/01/30 09:41:25;;;;;;;12.20;7.75;;;;;;;2.05;76.37;99481.88;1733790;82;21116;-84
2021/01/30 09:44:08;;;;;;;11.95;7.97;;;;;;;2.11;76.02;99487.30;1704603;84;21219;-84
2021/01/30 09:46:39;;;;;;;15.70;8.48;;;;;;;2.16;76.08;99487.88;1753146;81;22006;-84
2021/01/30 09:49:09;;;;;;;14.13;8.30;;;;;;;2.25;75.95;99481.75;1733784;82;21167;-84
2021/01/30 09:51:41;;;;;;;16.62;8.73;;;;;;;2.43;76.22;99482.44;1674120;84;21167;-84
2021/01/30 09:54:14;;;;;;;15.32;9.43;;;;;;;2.67;76.21;99474.66;1733735;82;21179;-84
2021/01/30 09:56:41;;;;;;;11.70;8.23;;;;;;;2.87;76.00;99477.98;1704635;84;21246;-84
2021/01/30 09:59:08;;;;;;;12.20;7.92;;;;;;;2.96;75.57;99470.90;1733932;82;22145;-84
2021/01/30 10:01:41;;;;;;;13.95;8.45;;;;;;;2.99;75.35;99461.05;1704378;84;21258;-83
2021/01/30 10:04:25;;;;;;;12.30;7.33;;;;;;;3.01;75.19;99469.34;1734056;82;21144;-84
2021/01/30 10:07:17;;;;;;;9.25;6.67;;;;;;;3.02;74.82;99465.03;1704586;84;21214;-84
2021/01/30 10:09:48;;;;;;;11.83;7.45;;;;;;;2.98;74.50;99472.25;1733809;82;21167;-84
2021/01/30 10:12:18;;;;;;;14.95;6.90;;;;;;;2.89;74.31;99468.91;1704253;84;21973;-84
2021/01/30 10:14:54;;;;;;;14.07;7.15;;;;;;;2.82;74.12;99471.73;1754295;81;21215;-83
2021/01/30 10:17:34;;;;;;;15.50;8.10;;;;;;;2.77;74.19;99458.98;1733959;82;21203;-84
2021/01/30 10:20:11;;;;;;;14.35;8.08;;;;;;;2.72;74.27;99461.42;1704472;84;21140;-84
2021/01/30 10:22:45;;;;;;;12.63;8.15;;;;;;;2.76;74.24;99465.02;1733894;82;21585;-83
2021/01/30 10:25:19;;;;;;;15.50;8.73;;;;;;;2.70;73.74;99473.88;1722680;82;22896;-84
2021/01/30 10:27:47;;;;;;;16.80;9.25;;;;;;;2.65;74.04;99473.72;1768059;81;21155;-84
2021/01/30 10:32:54;;;;;;;13.53;7.95;;;;;;;2.64;73.81;99478.86;1889218;76;22681;-85
2021/01/30 10:35:49;;;;;;;17.80;8.93;;;;;;;2.57;73.68;99478.16;1857546;77;21625;-84
2021/01/30 10:38:19;;;;;;;12.23;7.45;;;;;;;2.59;73.69;99479.09;1744315;81;22907;-83
2021/01/30 10:40:55;;;;;;;12.82;7.20;;;;;;;2.56;73.16;99490.27;1744089;82;21185;-85
2021/01/30 10:43:32;;;;;;;12.73;7.08;;;;;;;2.54;73.59;99480.24;1744355;82;21226;-84
2021/01/30 10:46:02;;;;;;;12.07;6.75;;;;;;;2.53;73.37;99482.36;1744296;82;21233;-84
2021/01/30 10:48:40;;;;;;;14.70;7.78;;;;;;;2.61;73.53;99492.64;1795732;79;22737;-85
2021/01/30 10:51:21;;;;;;;11.22;6.95;;;;;;;2.55;73.37;99488.48;1786378;78;21084;-84
2021/01/30 10:53:48;;;;;;;13.88;6.75;;;;;;;2.61;73.47;99491.33;1772960;78;21897;-84
2021/01/30 10:56:28;;;;;;;13.65;7.08;;;;;;;2.64;73.28;99491.84;1783049;78;21178;-83
2021/01/30 10:58:56;;;;;;;17.17;7.42;;;;;;;2.66;73.28;99494.09;1786882;79;21148;-83
2021/01/30 11:01:32;;;;;;;13.70;7.45;;;;;;;2.75;73.35;99495.72;1771269;79;21223;-83
2021/01/30 11:04:06;;;;;;;11.80;7.40;;;;;;;2.84;73.25;99491.28;1773653;79;21254;-83
2021/01/30 11:06:47;;;;;;;10.48;6.62;;;;;;;2.92;73.09;99490.70;1780513;79;22830;-83
2021/01/30 11:09:24;;;;;;;11.03;6.08;;;;;;;2.96;72.93;99489.09;1753676;79;21546;-83
2021/01/30 11:11:54;;;;;;;16.45;10.03;;;;;;;2.99;72.64;99491.81;1784415;79;21189;-82
2021/01/30 11:14:28;;;;;;;13.08;7.03;;;;;;;2.96;72.49;99491.69;1751525;79;21242;-83
2021/01/30 11:16:56;;;;;;;14.18;7.05;;;;;;;2.97;72.36;99499.97;1768427;79;21712;-85
2021/01/30 11:19:39;;;;;;;11.05;6.70;;;;;;;2.95;72.22;99487.73;1733090;82;21133;-86
2021/01/30 11:22:20;;;;;;;10.20;6.28;;;;;;;2.98;72.47;99488.73;1731087;82;21225;-86
2021/01/30 11:25:06;;;;;;;11.43;6.42;;;;;;;3.09;72.47;99489.11;1762103;80;21126;-84
2021/01/30 11:27:47;;;;;;;14.80;7.17;;;;;;;3.24;72.59;99490.05;1757533;81;21178;-83
2021/01/30 11:30:20;;;;;;;11.15;7.17;;;;;;;3.36;72.30;99490.48;1757547;81;21375;-85
2021/01/30 11:33:10;;;;;;;11.03;6.03;;;;;;;3.41;72.11;99485.41;1757262;81;22972;-83
2021/01/30 11:35:56;;;;;;;9.25;5.90;;;;;;;3.44;71.74;99488.13;1732045;81;21190;-85
2021/01/30 11:38:27;;;;;;;7.72;5.00;;;;;;;3.42;71.50;99498.48;1757282;81;21186;-84
2021/01/30 11:40:56;;;;;;;7.00;4.70;;;;;;;3.31;71.27;99499.41;1757315;81;21217;-85
2021/01/30 11:43:24;;;;;;;8.53;5.50;;;;;;;3.20;70.85;99493.39;1757431;81;21193;-83
2021/01/30 11:45:53;;;;;;;10.60;5.60;;;;;;;3.16;71.36;99494.12;1780317;80;21892;-83
2021/01/30 11:48:20;;;;;;;8.50;5.75;;;;;;;3.24;71.52;99495.25;1727811;82;21192;-82
2021/01/30 11:50:49;;;;;;;9.98;5.72;;;;;;;3.30;71.43;99496.75;1734718;82;21171;-81
2021/01/30 11:53:23;;;;;;;9.50;5.25;;;;;;;3.31;71.04;99505.03;1734712;82;21175;-82
2021/01/30 11:55:51;;;;;;;10.25;5.95;;;;;;;3.24;70.90;99500.45;1734545;82;21211;-83
2021/01/30 11:58:18;;;;;;;13.53;6.80;;;;;;;3.19;70.85;99508.50;1734714;82;22889;-83
2021/01/30 12:00:46;;;;;;;9.63;5.90;;;;;;;3.16;70.90;99514.92;1734473;82;21184;-83
2021/01/30 12:03:30;;;;;;;10.28;6.90;;;;;;;3.10;70.56;99508.67;1734454;82;21207;-86
2021/01/30 12:05:59;;;;;;;10.80;5.90;;;;;;;3.07;70.77;99509.84;1755815;81;21136;-85
2021/01/30 12:08:28;;;;;;;10.30;6.30;;;;;;;3.05;70.64;99510.64;1755226;81;21204;-83
2021/01/30 12:10:55;;;;;;;11.03;5.90;;;;;;;3.03;70.57;99512.30;1718618;81;21905;-83
2021/01/30 12:13:22;;;;;;;11.03;5.92;;;;;;;3.01;70.74;99515.27;1723080;83;21211;-83
2021/01/30 12:15:49;;;;;;;10.48;6.37;;;;;;;3.00;70.67;99518.25;1722641;83;21607;-83